Time;durP1;ratioP1;P1;durP2;ratioP2;P2;SDS_P1;SDS_P2;PMS_P1;PMS_P2;Temp;Humidity;BMP_temperature;BMP_pressure;BME280_temperature;BME280_humidity;BME280_pressure;Samples;Min_cycle;Max_cycle;Signal;HPM_P1;HPM_P2
2023/06/25 00:04:14;;;;;;;66.25;34.08;;;;;;;;;;10485887;28;20045;-82
2023/06/25 00:09:15;;;;;;;44.22;29.00;;;;;;;;;;10499287;28;20045;-81
2023/06/25 00:14:16;;;;;;;49.20;29.35;;;;;;;;;;10495442;28;20491;-81
2023/06/25 00:19:17;;;;;;;47.95;28.90;;;;;;;;;;10500602;28;20028;-81
2023/06/25 00:24:18;;;;;;;45.58;28.13;;;;;;;;;;10494764;28;20028;-80
2023/06/25 00:29:19;;;;;;;48.35;29.92;;;;;;;;;;10493637;28;20044;-80
2023/06/25 00:34:20;;;;;;;63.03;33.03;;;;;;;;;;10490123;28;20032;-80
2023/06/25 00:39:21;;;;;;;77.13;33.08;;;;;;;;;;10490868;28;20028;-81
2023/06/25 00:44:22;;;;;;;53.80;29.67;;;;;;;;;;10489521;28;20035;-81
2023/06/25 00:49:23;;;;;;;44.33;28.17;;;;;;;;;;10498912;28;20383;-80
2023/06/25 00:54:24;;;;;;;65.20;32.90;;;;;;;;;;10489505;28;20028;-80
2023/06/25 00:59:27;;;;;;;67.50;33.72;;;;;;;;;;10489361;28;20067;-81
2023/06/25 01:04:33;;;;;;;63.75;35.78;;;;;;;;;;10493470;28;20036;-80
2023/06/25 01:09:34;;;;;;;63.35;34.58;;;;;;;;;;10490099;28;20127;-81
2023/06/25 01:14:35;;;;;;;48.08;30.25;;;;;;;;;;10488391;28;20789;-80
2023/06/25 01:19:36;;;;;;;54.58;30.50;;;;;;;;;;10490264;28;20040;-81
2023/06/25 01:24:37;;;;;;;46.47;29.77;;;;;;;;;;10488074;28;20380;-80
2023/06/25 01:29:38;;;;;;;61.50;33.60;;;;;;;;;;10492049;28;20040;-82
2023/06/25 01:34:39;;;;;;;45.47;29.80;;;;;;;;;;10501571;28;20362;-80
2023/06/25 01:39:40;;;;;;;46.03;28.98;;;;;;;;;;10487759;28;20043;-80
2023/06/25 01:44:41;;;;;;;41.50;26.83;;;;;;;;;;10486798;28;20033;-81
2023/06/25 01:49:42;;;;;;;49.30;31.05;;;;;;;;;;10486713;28;20484;-81
2023/06/25 01:54:43;;;;;;;40.03;27.75;;;;;;;;;;10488740;28;20029;-80
2023/06/25 01:59:45;;;;;;;39.40;24.95;;;;;;;;;;10500400;28;20056;-81
2023/06/25 02:04:46;;;;;;;69.95;32.47;;;;;;;;;;10485453;28;20036;-80
2023/06/25 02:09:47;;;;;;;53.38;28.38;;;;;;;;;;10486718;28;20072;-80
2023/06/25 02:14:48;;;;;;;49.80;27.55;;;;;;;;;;10488949;28;20074;-80
2023/06/25 02:19:49;;;;;;;48.97;27.65;;;;;;;;;;10486246;28;20071;-81
2023/06/25 02:24:50;;;;;;;54.58;28.30;;;;;;;;;;10486559;28;20032;-80
2023/06/25 02:29:51;;;;;;;34.05;21.55;;;;;;;;;;10489849;28;20063;-80
2023/06/25 02:34:52;;;;;;;40.03;22.48;;;;;;;;;;10486790;28;20036;-80
2023/06/25 02:39:53;;;;;;;49.38;26.42;;;;;;;;;;10495182;28;20040;-81
2023/06/25 02:44:54;;;;;;;61.13;27.52;;;;;;;;;;10504581;28;20472;-81
2023/06/25 02:49:55;;;;;;;38.13;24.55;;;;;;;;;;10496357;28;20040;-81
2023/06/25 02:54:56;;;;;;;37.60;23.08;;;;;;;;;;10495881;28;20025;-81
2023/06/25 02:59:57;;;;;;;49.05;26.65;;;;;;;;;;10497085;28;20052;-81
2023/06/25 03:04:58;;;;;;;47.28;26.05;;;;;;;;;;10492156;28;20029;-81
2023/06/25 03:09:59;;;;;;;38.83;23.02;;;;;;;;;;10493452;28;20032;-82
2023/06/25 03:15:00;;;;;;;48.45;26.73;;;;;;;;;;10493603;28;20043;-81
2023/06/25 03:20:03;;;;;;;40.95;24.85;;;;;;;;;;10492133;28;20594;-81
2023/06/25 03:25:04;;;;;;;36.97;24.35;;;;;;;;;;10493353;28;20031;-81
2023/06/25 03:30:06;;;;;;;51.42;27.65;;;;;;;;;;10497448;28;20044;-81
2023/06/25 03:35:07;;;;;;;36.13;22.35;;;;;;;;;;10505060;28;20048;-82
2023/06/25 03:40:08;;;;;;;39.50;24.10;;;;;;;;;;10492847;28;20415;-82
2023/06/25 03:45:09;;;;;;;47.10;29.23;;;;;;;;;;10529688;22;20052;-81
2023/06/25 03:50:10;;;;;;;48.08;30.92;;;;;;;;;;10534098;28;20088;-81
2023/06/25 03:55:11;;;;;;;60.15;37.20;;;;;;;;;;10524027;28;20038;-81
2023/06/25 04:00:13;;;;;;;49.50;32.33;;;;;;;;;;10526583;28;20038;-81
2023/06/25 04:05:14;;;;;;;62.95;36.28;;;;;;;;;;10529243;28;20472;-81
2023/06/25 04:10:15;;;;;;;37.45;23.98;;;;;;;;;;10520892;28;20036;-82
2023/06/25 04:15:16;;;;;;;30.48;20.80;;;;;;;;;;10531381;28;20043;-82
2023/06/25 04:20:17;;;;;;;32.28;22.90;;;;;;;;;;10531787;28;20059;-82
2023/06/25 04:25:18;;;;;;;35.72;22.42;;;;;;;;;;10531784;28;20120;-81
2023/06/25 04:30:19;;;;;;;34.67;23.48;;;;;;;;;;10531061;28;20036;-82
2023/06/25 04:35:20;;;;;;;31.65;20.70;;;;;;;;;;10515894;28;20119;-81
2023/06/25 04:40:21;;;;;;;32.28;21.55;;;;;;;;;;10521137;28;20035;-85
2023/06/25 04:45:22;;;;;;;28.35;19.92;;;;;;;;;;10525936;28;20518;-82
2023/06/25 04:50:23;;;;;;;30.58;20.70;;;;;;;;;;10525373;28;20030;-83
2023/06/25 04:55:24;;;;;;;33.60;23.02;;;;;;;;;;10531664;28;20421;-82
2023/06/25 05:00:25;;;;;;;32.03;21.48;;;;;;;;;;10531185;28;20032;-82
2023/06/25 05:05:26;;;;;;;27.75;19.27;;;;;;;;;;10530272;28;20797;-81
2023/06/25 05:10:27;;;;;;;35.15;21.80;;;;;;;;;;10531361;28;20036;-82
2023/06/25 05:15:28;;;;;;;30.42;19.85;;;;;;;;;;10531811;28;20637;-82
2023/06/25 05:20:35;;;;;;;28.60;19.08;;;;;;;;;;10517193;28;20111;-82
2023/06/25 05:25:36;;;;;;;27.23;19.40;;;;;;;;;;10530325;28;20031;-82
2023/06/25 05:30:37;;;;;;;27.42;18.67;;;;;;;;;;10530493;28;20089;-84
2023/06/25 05:35:38;;;;;;;29.52;20.10;;;;;;;;;;10529703;28;20471;-83
2023/06/25 05:40:39;;;;;;;28.67;17.90;;;;;;;;;;10529573;28;20040;-82
2023/06/25 05:45:40;;;;;;;21.08;15.90;;;;;;;;;;10530223;28;20055;-82
2023/06/25 05:50:41;;;;;;;26.63;17.05;;;;;;;;;;10529940;28;20034;-82
2023/06/25 05:55:42;;;;;;;28.85;17.92;;;;;;;;;;10529679;28;20546;-82
2023/06/25 06:00:43;;;;;;;24.60;16.60;;;;;;;;;;10528226;28;20054;-82
2023/06/25 06:05:44;;;;;;;23.77;16.17;;;;;;;;;;10517743;28;20394;-82
2023/06/25 06:10:46;;;;;;;20.40;15.18;;;;;;;;;;10517231;28;20038;-82
2023/06/25 06:15:47;;;;;;;25.70;16.70;;;;;;;;;;10515434;28;20028;-82
2023/06/25 06:20:49;;;;;;;21.25;15.32;;;;;;;;;;10521377;28;20032;-82
2023/06/25 06:25:50;;;;;;;22.73;15.20;;;;;;;;;;10512805;28;20083;-83
2023/06/25 06:30:51;;;;;;;20.48;14.48;;;;;;;;;;10525799;28;20024;-86
2023/06/25 06:35:52;;;;;;;21.52;14.75;;;;;;;;;;10519367;28;20040;-83
2023/06/25 06:40:54;;;;;;;20.73;15.00;;;;;;;;;;10508105;28;20049;-83
2023/06/25 06:45:55;;;;;;;20.80;15.00;;;;;;;;;;10517461;28;20446;-83
2023/06/25 06:50:56;;;;;;;21.33;13.60;;;;;;;;;;10520343;28;20042;-83
2023/06/25 06:55:57;;;;;;;18.05;12.38;;;;;;;;;;10524817;28;20399;-82
2023/06/25 07:00:58;;;;;;;19.25;12.05;;;;;;;;;;10527695;28;20048;-83
2023/06/25 07:05:59;;;;;;;16.38;10.98;;;;;;;;;;10518294;28;20024;-83
2023/06/25 07:11:00;;;;;;;17.40;9.85;;;;;;;;;;10524505;28;20111;-84
2023/06/25 07:16:01;;;;;;;11.38;9.32;;;;;;;;;;10510347;28;20469;-83
2023/06/25 07:21:02;;;;;;;13.13;8.77;;;;;;;;;;10525960;28;20031;-83
2023/06/25 07:26:04;;;;;;;13.95;9.32;;;;;;;;;;10508614;28;20032;-84
2023/06/25 07:31:05;;;;;;;11.82;7.80;;;;;;;;;;10530457;28;20020;-83
2023/06/25 07:36:06;;;;;;;10.18;7.78;;;;;;;;;;10533203;28;20036;-85
2023/06/25 07:41:07;;;;;;;13.10;7.47;;;;;;;;;;10533213;28;20094;-83
2023/06/25 07:46:09;;;;;;;9.18;6.78;;;;;;;;;;10525119;28;20020;-84
2023/06/25 07:51:10;;;;;;;9.50;7.05;;;;;;;;;;10529625;28;20870;-83
2023/06/25 07:56:11;;;;;;;10.60;7.55;;;;;;;;;;10527372;28;20024;-83
2023/06/25 08:01:12;;;;;;;12.57;7.63;;;;;;;;;;10523303;28;20036;-83
2023/06/25 08:06:13;;;;;;;12.38;7.13;;;;;;;;;;10527888;28;20026;-84
2023/06/25 08:11:14;;;;;;;10.13;7.47;;;;;;;;;;10517515;28;20433;-83
2023/06/25 08:16:15;;;;;;;9.45;6.95;;;;;;;;;;10519827;28;20040;-85
2023/06/25 08:21:16;;;;;;;9.73;6.15;;;;;;;;;;10531626;28;20028;-85
2023/06/25 08:26:17;;;;;;;10.25;7.60;;;;;;;;;;10522127;28;20108;-84
2023/06/25 08:31:18;;;;;;;8.77;6.70;;;;;;;;;;10528533;28;20600;-84
2023/06/25 08:36:19;;;;;;;9.10;6.53;;;;;;;;;;10521134;28;20054;-85
2023/06/25 08:41:20;;;;;;;11.50;7.00;;;;;;;;;;10504496;28;20064;-84
2023/06/25 08:46:23;;;;;;;9.20;6.80;;;;;;;;;;10531527;28;20440;-84
2023/06/25 08:51:24;;;;;;;9.15;7.00;;;;;;;;;;10527921;28;20028;-85
2023/06/25 08:56:25;;;;;;;8.27;6.13;;;;;;;;;;10520339;28;20494;-83
2023/06/25 09:01:26;;;;;;;9.55;6.18;;;;;;;;;;10512202;28;20024;-83
2023/06/25 09:06:27;;;;;;;6.38;5.13;;;;;;;;;;10531498;28;20047;-83
2023/06/25 09:11:34;;;;;;;6.15;5.30;;;;;;;;;;10526657;28;20028;-85
2023/06/25 09:16:45;;;;;;;7.97;5.03;;;;;;;;;;10526501;28;20048;-85
2023/06/25 09:21:46;;;;;;;7.78;5.10;;;;;;;;;;10528363;28;20029;-87
2023/06/25 09:26:48;;;;;;;8.10;4.80;;;;;;;;;;10512063;28;20039;-85
2023/06/25 09:31:49;;;;;;;7.70;5.82;;;;;;;;;;10526767;28;20063;-87
2023/06/25 09:36:50;;;;;;;8.68;5.45;;;;;;;;;;10523594;28;20574;-84
2023/06/25 09:41:52;;;;;;;10.85;5.60;;;;;;;;;;10517326;28;20051;-84
2023/06/25 09:46:56;;;;;;;6.70;4.55;;;;;;;;;;10512839;28;20016;-82
2023/06/25 09:51:57;;;;;;;7.50;5.00;;;;;;;;;;10519272;28;20089;-84
2023/06/25 09:57:01;;;;;;;7.13;5.05;;;;;;;;;;10523247;28;20544;-85
2023/06/25 10:02:03;;;;;;;8.23;5.20;;;;;;;;;;10525865;28;20039;-84
2023/06/25 10:07:04;;;;;;;6.72;5.50;;;;;;;;;;10527975;28;20035;-85
2023/06/25 10:12:06;;;;;;;5.97;4.97;;;;;;;;;;10521990;28;20045;-84
2023/06/25 10:17:07;;;;;;;10.18;5.18;;;;;;;;;;10509452;28;20032;-85
2023/06/25 10:22:16;;;;;;;7.60;5.10;;;;;;;;;;10503346;28;20032;-82
2023/06/25 10:27:20;;;;;;;7.03;5.30;;;;;;;;;;10504599;28;20123;-85
2023/06/25 10:32:21;;;;;;;7.20;5.20;;;;;;;;;;10513539;28;20024;-83
2023/06/25 10:37:28;;;;;;;6.40;4.80;;;;;;;;;;10510923;28;20036;-86
2023/06/25 10:42:30;;;;;;;6.32;5.30;;;;;;;;;;10514301;28;20064;-84
2023/06/25 10:47:33;;;;;;;9.23;5.50;;;;;;;;;;10524224;28;20024;-84
2023/06/25 10:52:35;;;;;;;7.00;5.03;;;;;;;;;;10520139;28;20031;-84
2023/06/25 10:57:36;;;;;;;6.38;4.93;;;;;;;;;;10518440;28;20123;-85
2023/06/25 11:02:37;;;;;;;5.75;4.80;;;;;;;;;;10523404;28;20043;-80
2023/06/25 11:07:38;;;;;;;6.82;4.97;;;;;;;;;;10519333;28;20404;-86
2023/06/25 11:12:39;;;;;;;9.02;5.45;;;;;;;;;;10520280;28;20028;-82
2023/06/25 11:17:40;;;;;;;7.45;5.40;;;;;;;;;;10529109;28;20035;-84
2023/06/25 11:22:45;;;;;;;9.40;5.07;;;;;;;;;;10518289;28;20032;-81
2023/06/25 11:27:46;;;;;;;8.05;4.60;;;;;;;;;;10520872;28;20963;-85
2023/06/25 11:32:47;;;;;;;5.60;4.63;;;;;;;;;;10520876;28;20438;-85
2023/06/25 11:37:49;;;;;;;5.32;4.65;;;;;;;;;;10508695;28;20036;-83
2023/06/25 11:42:51;;;;;;;9.85;3.97;;;;;;;;;;10534118;28;21045;-83
2023/06/25 11:47:56;;;;;;;5.82;4.15;;;;;;;;;;10526436;28;20097;-82
2023/06/25 11:52:57;;;;;;;5.40;4.68;;;;;;;;;;10510156;22;20084;-84
2023/06/25 11:57:58;;;;;;;4.63;4.10;;;;;;;;;;10492164;28;20115;-85
2023/06/25 12:02:59;;;;;;;6.10;4.15;;;;;;;;;;10483458;28;20043;-83
2023/06/25 12:08:00;;;;;;;5.22;3.97;;;;;;;;;;10490611;28;20036;-84
2023/06/25 12:13:01;;;;;;;7.95;4.68;;;;;;;;;;10490900;28;20036;-83
2023/06/25 12:18:02;;;;;;;5.78;4.35;;;;;;;;;;10479881;28;20041;-84
2023/06/25 12:23:03;;;;;;;4.80;3.47;;;;;;;;;;10489228;28;20024;-82
2023/06/25 12:28:04;;;;;;;5.32;3.88;;;;;;;;;;10486503;28;20059;-82
2023/06/25 12:33:05;;;;;;;5.43;3.83;;;;;;;;;;10489837;28;20025;-80
2023/06/25 12:38:06;;;;;;;4.82;3.47;;;;;;;;;;10489696;28;20036;-82
2023/06/25 12:43:08;;;;;;;4.65;3.28;;;;;;;;;;10480935;28;20103;-82
2023/06/25 12:48:09;;;;;;;4.97;2.97;;;;;;;;;;10484483;28;20491;-82
2023/06/25 12:53:10;;;;;;;3.40;2.95;;;;;;;;;;10489095;28;20044;-83
2023/06/25 12:58:14;;;;;;;3.33;2.95;;;;;;;;;;10478746;28;20537;-82
2023/06/25 13:03:15;;;;;;;5.53;3.23;;;;;;;;;;10478594;28;20032;-81
2023/06/25 13:08:16;;;;;;;4.35;3.00;;;;;;;;;;10474171;28;20275;-81
2023/06/25 13:13:17;;;;;;;3.65;2.85;;;;;;;;;;10488374;28;20476;-82
2023/06/25 13:18:18;;;;;;;3.83;2.80;;;;;;;;;;10480262;28;21043;-82
2023/06/25 13:23:19;;;;;;;4.05;3.17;;;;;;;;;;10475235;28;20043;-83
2023/06/25 13:28:21;;;;;;;3.40;2.53;;;;;;;;;;10487080;28;20021;-83
2023/06/25 13:33:22;;;;;;;3.42;2.70;;;;;;;;;;10485753;28;20017;-83
2023/06/25 13:38:23;;;;;;;4.43;3.20;;;;;;;;;;10487155;28;20036;-84
2023/06/25 13:43:24;;;;;;;3.97;2.90;;;;;;;;;;10473143;28;20051;-84
2023/06/25 13:48:25;;;;;;;3.78;3.05;;;;;;;;;;10478909;28;20033;-83
2023/06/25 13:53:26;;;;;;;3.58;2.83;;;;;;;;;;10493884;28;20106;-83
2023/06/25 13:58:27;;;;;;;3.70;3.00;;;;;;;;;;10478777;28;20111;-83
2023/06/25 14:03:28;;;;;;;4.53;2.67;;;;;;;;;;10486012;28;20053;-84
2023/06/25 14:08:29;;;;;;;2.90;2.63;;;;;;;;;;10483639;28;20021;-82
2023/06/25 14:13:32;;;;;;;4.22;3.30;;;;;;;;;;10484044;28;20032;-81
2023/06/25 14:18:33;;;;;;;3.00;2.60;;;;;;;;;;10469779;28;20043;-85
2023/06/25 14:23:34;;;;;;;6.93;3.35;;;;;;;;;;10485639;28;20441;-84
2023/06/25 14:28:35;;;;;;;4.40;2.83;;;;;;;;;;10486202;28;20036;-81
2023/06/25 14:33:36;;;;;;;5.25;3.00;;;;;;;;;;10483811;28;20431;-85
2023/06/25 14:38:40;;;;;;;4.38;3.03;;;;;;;;;;10485062;28;20096;-83
2023/06/25 14:43:41;;;;;;;5.57;2.55;;;;;;;;;;10484133;28;20032;-82
2023/06/25 14:48:42;;;;;;;4.22;2.97;;;;;;;;;;10484404;28;20052;-83
2023/06/25 14:53:44;;;;;;;3.78;2.97;;;;;;;;;;10484470;28;20040;-83
2023/06/25 14:58:44;;;;;;;2.95;2.60;;;;;;;;;;10483801;28;20496;-81
2023/06/25 15:03:45;;;;;;;5.70;3.17;;;;;;;;;;10482048;28;20035;-82
2023/06/25 15:08:46;;;;;;;4.18;3.10;;;;;;;;;;10484140;28;20032;-81
2023/06/25 15:13:47;;;;;;;3.67;3.20;;;;;;;;;;10472590;28;20395;-80
2023/06/25 15:18:49;;;;;;;4.25;3.28;;;;;;;;;;10476456;28;20040;-82
2023/06/25 15:23:50;;;;;;;4.00;3.20;;;;;;;;;;10482512;28;20089;-81
2023/06/25 15:28:51;;;;;;;4.25;2.88;;;;;;;;;;10474258;28;20040;-82
2023/06/25 15:33:52;;;;;;;4.78;3.20;;;;;;;;;;10479815;28;20029;-81
2023/06/25 15:38:53;;;;;;;4.43;3.10;;;;;;;;;;10484958;28;20109;-84
2023/06/25 15:43:54;;;;;;;4.00;3.42;;;;;;;;;;10484199;28;20147;-82
2023/06/25 15:48:55;;;;;;;4.90;3.33;;;;;;;;;;10479429;28;20525;-81
2023/06/25 15:53:56;;;;;;;3.35;2.67;;;;;;;;;;10490388;28;20384;-81
2023/06/25 15:58:57;;;;;;;4.38;3.05;;;;;;;;;;10492552;28;20040;-84
2023/06/25 16:03:58;;;;;;;4.60;2.97;;;;;;;;;;10486744;28;20029;-81
2023/06/25 16:08:59;;;;;;;3.55;3.08;;;;;;;;;;10489224;28;20059;-82
2023/06/25 16:14:00;;;;;;;5.20;3.15;;;;;;;;;;10491339;28;20119;-83
2023/06/25 16:19:01;;;;;;;4.93;2.80;;;;;;;;;;10489873;28;20097;-85
2023/06/25 16:24:03;;;;;;;5.07;3.78;;;;;;;;;;10481779;28;20093;-81
2023/06/25 16:29:03;;;;;;;4.13;2.85;;;;;;;;;;10486858;28;20040;-81
2023/06/25 16:34:04;;;;;;;4.40;3.15;;;;;;;;;;10486791;28;20055;-81
2023/06/25 16:39:05;;;;;;;4.03;3.20;;;;;;;;;;10481181;28;20047;-81
2023/06/25 16:44:06;;;;;;;5.07;2.90;;;;;;;;;;10488983;28;20032;-83
2023/06/25 16:49:07;;;;;;;4.43;3.38;;;;;;;;;;10480934;28;20396;-80
2023/06/25 16:54:10;;;;;;;3.80;3.00;;;;;;;;;;10500200;22;20147;-83
2023/06/25 16:59:11;;;;;;;4.90;3.55;;;;;;;;;;10475115;28;20625;-83
2023/06/25 17:04:13;;;;;;;5.30;4.03;;;;;;;;;;10490678;28;20083;-82
2023/06/25 17:09:14;;;;;;;5.07;3.67;;;;;;;;;;10477498;28;20035;-80
2023/06/25 17:14:15;;;;;;;4.03;3.15;;;;;;;;;;10472743;28;20387;-81
2023/06/25 17:19:16;;;;;;;5.18;3.45;;;;;;;;;;10482556;28;20046;-83
2023/06/25 17:24:17;;;;;;;4.25;3.10;;;;;;;;;;10506919;28;20107;-80
2023/06/25 17:29:19;;;;;;;4.18;3.03;;;;;;;;;;10523418;28;20115;-80
2023/06/25 17:34:20;;;;;;;3.97;3.30;;;;;;;;;;10502085;28;20047;-82
2023/06/25 17:39:21;;;;;;;5.20;3.17;;;;;;;;;;10484547;28;20048;-81
2023/06/25 17:44:22;;;;;;;5.60;3.72;;;;;;;;;;10483870;28;20033;-83
2023/06/25 17:49:23;;;;;;;5.07;3.38;;;;;;;;;;10489152;28;20115;-81
2023/06/25 17:54:24;;;;;;;4.25;2.97;;;;;;;;;;10486463;28;20044;-79
2023/06/25 17:59:25;;;;;;;4.28;3.28;;;;;;;;;;10519513;22;20059;-79
2023/06/25 18:04:26;;;;;;;6.28;3.90;;;;;;;;;;10505635;28;20016;-80
2023/06/25 18:09:27;;;;;;;6.28;3.80;;;;;;;;;;10506111;28;20032;-79
2023/06/25 18:14:28;;;;;;;5.28;3.75;;;;;;;;;;10515660;28;20032;-79
2023/06/25 18:19:30;;;;;;;7.63;4.88;;;;;;;;;;10500641;28;20375;-79
2023/06/25 18:24:31;;;;;;;6.75;4.03;;;;;;;;;;10512107;28;20025;-79
2023/06/25 18:29:32;;;;;;;5.72;4.10;;;;;;;;;;10475096;28;20025;-80
2023/06/25 18:34:34;;;;;;;8.00;4.45;;;;;;;;;;10464025;28;20050;-81
2023/06/25 18:39:35;;;;;;;6.35;4.13;;;;;;;;;;10468189;28;20031;-79
2023/06/25 18:44:36;;;;;;;5.30;4.03;;;;;;;;;;10471298;28;20036;-80
2023/06/25 18:49:37;;;;;;;6.15;4.18;;;;;;;;;;10484211;28;20036;-81
2023/06/25 18:54:38;;;;;;;6.22;4.63;;;;;;;;;;10480466;28;20035;-80
2023/06/25 18:59:39;;;;;;;6.00;3.72;;;;;;;;;;10480185;28;20598;-82
2023/06/25 19:04:40;;;;;;;6.72;4.57;;;;;;;;;;10478594;28;20516;-80
2023/06/25 19:09:41;;;;;;;7.30;4.88;;;;;;;;;;10462265;28;20037;-81
2023/06/25 19:14:42;;;;;;;8.95;4.88;;;;;;;;;;10462133;28;20044;-80
2023/06/25 19:19:43;;;;;;;8.75;5.30;;;;;;;;;;10458758;28;20068;-81
2023/06/25 19:24:44;;;;;;;9.18;5.72;;;;;;;;;;10459907;28;20032;-79
2023/06/25 19:29:45;;;;;;;8.55;5.82;;;;;;;;;;10466064;28;20036;-82
2023/06/25 19:34:47;;;;;;;8.48;5.38;;;;;;;;;;10452806;28;20117;-81
2023/06/25 19:39:48;;;;;;;8.95;5.85;;;;;;;;;;10473150;28;20502;-80
2023/06/25 19:44:49;;;;;;;8.75;5.20;;;;;;;;;;10457831;28;20039;-79
2023/06/25 19:49:50;;;;;;;10.50;5.25;;;;;;;;;;10464764;28;20396;-79
2023/06/25 19:54:51;;;;;;;8.13;4.80;;;;;;;;;;10470326;28;20036;-79
2023/06/25 19:59:52;;;;;;;9.00;4.90;;;;;;;;;;10470963;28;20408;-79
2023/06/25 20:04:53;;;;;;;7.88;5.03;;;;;;;;;;10460779;28;20032;-79
2023/06/25 20:09:54;;;;;;;8.27;4.97;;;;;;;;;;10470149;28;20021;-79
2023/06/25 20:14:56;;;;;;;9.00;4.75;;;;;;;;;;10451410;28;20571;-80
2023/06/25 20:19:57;;;;;;;8.32;4.70;;;;;;;;;;10471561;28;20361;-79
2023/06/25 20:24:58;;;;;;;9.10;4.85;;;;;;;;;;10477989;28;20017;-80
2023/06/25 20:29:59;;;;;;;7.95;4.43;;;;;;;;;;10469599;28;20024;-79
2023/06/25 20:35:00;;;;;;;6.63;4.45;;;;;;;;;;10462809;28;20526;-79
2023/06/25 20:40:01;;;;;;;7.80;4.50;;;;;;;;;;10458331;28;20041;-79
2023/06/25 20:45:02;;;;;;;6.00;4.43;;;;;;;;;;10462768;28;20079;-79
2023/06/25 20:50:03;;;;;;;5.85;4.25;;;;;;;;;;10456138;28;20446;-80
2023/06/25 20:55:04;;;;;;;7.45;4.70;;;;;;;;;;10468221;28;20033;-80
2023/06/25 21:00:07;;;;;;;6.97;3.97;;;;;;;;;;10457727;28;20223;-81
2023/06/25 21:05:08;;;;;;;5.90;3.97;;;;;;;;;;10461587;28;20017;-79
2023/06/25 21:10:09;;;;;;;5.75;4.13;;;;;;;;;;10471741;28;20036;-79
2023/06/25 21:15:10;;;;;;;7.13;4.43;;;;;;;;;;10459338;28;20032;-80
2023/06/25 21:20:11;;;;;;;7.40;4.28;;;;;;;;;;10462241;28;20036;-80
2023/06/25 21:25:12;;;;;;;8.40;4.72;;;;;;;;;;10482803;28;20013;-80
2023/06/25 21:30:13;;;;;;;6.45;4.20;;;;;;;;;;10466598;28;20025;-80
2023/06/25 21:35:14;;;;;;;6.45;4.25;;;;;;;;;;10452071;28;20132;-79
2023/06/25 21:40:16;;;;;;;7.50;4.78;;;;;;;;;;10473994;28;20067;-80
2023/06/25 21:45:16;;;;;;;6.05;4.07;;;;;;;;;;10483547;28;20142;-80
2023/06/25 21:50:17;;;;;;;6.50;4.40;;;;;;;;;;10479040;28;20070;-79
2023/06/25 21:55:19;;;;;;;6.82;4.78;;;;;;;;;;10478017;28;20081;-80
2023/06/25 22:00:20;;;;;;;8.73;4.65;;;;;;;;;;10473271;28;20048;-79
2023/06/25 22:05:21;;;;;;;6.93;4.75;;;;;;;;;;10530029;22;20057;-81
2023/06/25 22:10:22;;;;;;;6.05;4.07;;;;;;;;;;10527577;28;20059;-80
2023/06/25 22:15:23;;;;;;;5.47;4.00;;;;;;;;;;10518299;28;20552;-80
2023/06/25 22:20:27;;;;;;;7.53;4.78;;;;;;;;;;10524549;28;20055;-80
2023/06/25 22:25:28;;;;;;;8.65;4.97;;;;;;;;;;10515823;28;20085;-79
2023/06/25 22:30:29;;;;;;;8.32;4.95;;;;;;;;;;10521812;28;20031;-79
2023/06/25 22:35:30;;;;;;;7.13;4.80;;;;;;;;;;10511935;28;20572;-79
2023/06/25 22:40:31;;;;;;;8.15;4.53;;;;;;;;;;10519009;28;20100;-80
2023/06/25 22:45:32;;;;;;;7.95;4.70;;;;;;;;;;10518285;28;20076;-81
2023/06/25 22:50:33;;;;;;;8.18;4.85;;;;;;;;;;10514767;28;20430;-80
2023/06/25 22:55:34;;;;;;;6.40;4.75;;;;;;;;;;10522528;28;20037;-80
2023/06/25 23:00:37;;;;;;;8.38;4.85;;;;;;;;;;10518197;28;20051;-80
2023/06/25 23:05:38;;;;;;;6.05;4.30;;;;;;;;;;10529646;28;20737;-80
2023/06/25 23:10:39;;;;;;;8.02;4.70;;;;;;;;;;10535530;28;20156;-80
2023/06/25 23:15:40;;;;;;;6.38;4.43;;;;;;;;;;10516495;28;20032;-79
2023/06/25 23:20:41;;;;;;;9.73;5.15;;;;;;;;;;10514443;28;20051;-79
2023/06/25 23:25:42;;;;;;;6.97;4.65;;;;;;;;;;10522968;28;20032;-79
2023/06/25 23:30:43;;;;;;;8.00;4.45;;;;;;;;;;10525658;28;20800;-80
2023/06/25 23:35:44;;;;;;;7.80;4.72;;;;;;;;;;10533716;28;20036;-79
2023/06/25 23:40:45;;;;;;;8.15;4.93;;;;;;;;;;10533415;28;20423;-79
2023/06/25 23:45:46;;;;;;;8.32;4.90;;;;;;;;;;10528055;28;20038;-79
2023/06/25 23:50:47;;;;;;;9.45;5.50;;;;;;;;;;10530964;28;20085;-79
2023/06/25 23:55:48;;;;;;;8.25;4.97;;;;;;;;;;10530306;28;20592;-79
